Time;durP1;ratioP1;P1;durP2;ratioP2;P2;SDS_P1;SDS_P2;PMS_P1;PMS_P2;Temp;Humidity;BMP_temperature;BMP_pressure;BME280_temperature;BME280_humidity;BME280_pressure;Samples;Min_cycle;Max_cycle;Signal;HPM_P1;HPM_P2
2023/05/01 00:04:25;;;;;;;6.43;1.10;;;;;;;-147.53;100.00;57128.34;10136916;29;20483;-78
2023/05/01 00:09:27;;;;;;;3.17;1.52;;;;;;;-147.53;100.00;57128.34;10144800;29;20160;-78
2023/05/01 00:14:29;;;;;;;1.70;1.13;;;;;;;-147.53;100.00;57128.34;10136746;29;20053;-78
2023/05/01 00:19:31;;;;;;;3.15;1.63;;;;;;;-147.53;100.00;57128.34;10139448;29;20076;-78
2023/05/01 00:24:33;;;;;;;3.42;1.63;;;;;;;-147.53;100.00;57128.34;10149442;29;20580;-78
2023/05/01 00:29:35;;;;;;;1.42;0.98;;;;;;;-147.53;100.00;57128.34;10155867;29;20052;-78
2023/05/01 00:34:36;;;;;;;1.77;1.00;;;;;;;-147.53;100.00;57128.34;10151375;29;20049;-78
2023/05/01 00:39:38;;;;;;;3.17;1.55;;;;;;;-147.53;100.00;57128.34;10153144;29;20045;-78
2023/05/01 00:44:39;;;;;;;1.42;1.10;;;;;;;-147.53;100.00;57128.34;10124456;29;20059;-78
2023/05/01 00:49:43;;;;;;;2.10;1.38;;;;;;;-147.53;100.00;57128.34;10136154;29;20048;-78
2023/05/01 00:54:50;;;;;;;3.33;1.13;;;;;;;-147.53;100.00;57128.34;10140783;29;20049;-78
2023/05/01 00:59:52;;;;;;;3.42;1.60;;;;;;;-147.53;100.00;57128.34;10140574;29;20100;-78
2023/05/01 01:04:54;;;;;;;7.72;1.75;;;;;;;-147.53;100.00;57128.34;10137679;29;20522;-78
2023/05/01 01:10:18;;;;;;;5.13;1.77;;;;;;;-147.53;100.00;57128.34;10139655;29;20052;-78
2023/05/01 01:15:42;;;;;;;2.95;1.55;;;;;;;-147.53;100.00;57128.34;10138397;29;20067;-78
2023/05/01 01:21:11;;;;;;;3.25;1.70;;;;;;;-147.53;100.00;57128.34;10127971;29;20052;-78
2023/05/01 01:26:35;;;;;;;2.90;1.40;;;;;;;-147.53;100.00;57128.34;10145344;29;20054;-78
2023/05/01 01:32:04;;;;;;;1.33;1.08;;;;;;;-147.53;100.00;57128.34;10140285;29;20543;-78
2023/05/01 01:37:19;;;;;;;5.00;2.08;;;;;;;-147.53;100.00;57128.34;10144019;29;20055;-78
2023/05/01 01:42:36;;;;;;;2.40;1.45;;;;;;;-147.53;100.00;57128.34;10143548;29;20056;-78
2023/05/01 01:47:41;;;;;;;4.57;1.67;;;;;;;-147.53;100.00;57128.34;10126622;29;20055;-78
2023/05/01 01:52:46;;;;;;;2.85;1.63;;;;;;;-147.53;100.00;57128.34;10132660;29;20084;-78
2023/05/01 01:57:49;;;;;;;3.83;1.38;;;;;;;-147.53;100.00;57128.34;10145552;29;20053;-78
2023/05/01 02:02:53;;;;;;;2.90;1.45;;;;;;;-147.53;100.00;57128.34;10132704;29;20143;-78
2023/05/01 02:07:57;;;;;;;3.67;1.58;;;;;;;-147.53;100.00;57128.34;10130972;29;20040;-77
2023/05/01 02:13:02;;;;;;;2.97;1.67;;;;;;;-147.53;100.00;57128.34;10134803;29;20060;-78
2023/05/01 02:18:05;;;;;;;2.60;1.50;;;;;;;-147.53;100.00;57128.34;10147503;29;20048;-78
2023/05/01 02:23:08;;;;;;;3.53;1.70;;;;;;;-147.53;100.00;57128.34;10140267;29;20139;-78
2023/05/01 02:28:16;;;;;;;3.47;1.52;;;;;;;-147.53;100.00;57128.34;10131048;29;20513;-78
2023/05/01 02:33:18;;;;;;;2.72;1.27;;;;;;;-147.53;100.00;57128.34;10123206;29;20143;-78
2023/05/01 02:38:20;;;;;;;2.65;1.13;;;;;;;-147.53;100.00;57128.34;10138589;29;20040;-78
2023/05/01 02:43:25;;;;;;;3.38;1.75;;;;;;;-147.53;100.00;57128.34;10092423;29;20505;-78
2023/05/01 02:48:30;;;;;;;2.25;1.17;;;;;;;-147.53;100.00;57128.34;10139269;29;20128;-78
2023/05/01 02:53:33;;;;;;;1.63;1.10;;;;;;;-147.53;100.00;57128.34;10146293;29;20521;-78
2023/05/01 02:58:43;;;;;;;3.28;1.40;;;;;;;-147.53;100.00;57128.34;10125942;29;20084;-78
2023/05/01 03:03:44;;;;;;;3.05;1.33;;;;;;;-147.53;100.00;57128.34;10114703;29;20147;-78
2023/05/01 03:08:47;;;;;;;2.63;1.40;;;;;;;-147.53;100.00;57128.34;10121288;29;20052;-78
2023/05/01 03:13:48;;;;;;;9.55;1.83;;;;;;;-147.53;100.00;57128.34;10138814;29;20473;-78
2023/05/01 03:18:50;;;;;;;1.40;1.13;;;;;;;-147.53;100.00;57128.34;10126906;29;20052;-78
2023/05/01 03:23:52;;;;;;;3.72;1.77;;;;;;;-147.53;100.00;57128.34;10137006;29;20139;-77
2023/05/01 03:28:53;;;;;;;2.10;1.00;;;;;;;-147.53;100.00;57128.34;10132848;29;20055;-78
2023/05/01 03:33:55;;;;;;;1.80;1.23;;;;;;;-147.53;100.00;57128.34;10136835;29;20067;-78
2023/05/01 03:38:57;;;;;;;3.50;1.52;;;;;;;-147.53;100.00;57128.34;10133010;29;20052;-78
2023/05/01 03:44:10;;;;;;;5.47;1.77;;;;;;;-147.53;100.00;57128.34;10135923;29;20060;-78
2023/05/01 03:49:15;;;;;;;1.30;1.00;;;;;;;-147.53;100.00;57128.34;10136040;29;20552;-77
2023/05/01 03:54:20;;;;;;;1.98;1.25;;;;;;;-147.53;100.00;57128.34;10127992;29;20135;-78
2023/05/01 03:59:30;;;;;;;;;;;;;;;-147.53;100.00;57128.34;10112488;29;20052;-77
2023/05/01 04:04:32;;;;;;;0.70;0.50;;;;;;;-147.53;100.00;57128.34;10153530;29;20416;-78
2023/05/01 04:09:34;;;;;;;3.05;1.65;;;;;;;-147.53;100.00;57128.34;10126507;29;20643;-78
2023/05/01 04:14:36;;;;;;;5.57;1.88;;;;;;;-147.53;100.00;57128.34;10118598;29;20048;-78
2023/05/01 04:19:38;;;;;;;1.83;1.08;;;;;;;-147.53;100.00;57128.34;10124958;29;20099;-78
2023/05/01 04:24:39;;;;;;;4.20;1.92;;;;;;;-147.53;100.00;57128.34;10121016;29;20059;-78
2023/05/01 04:29:42;;;;;;;1.63;1.10;;;;;;;-147.53;100.00;57128.34;10117955;29;20072;-78
2023/05/01 04:34:44;;;;;;;3.92;2.40;;;;;;;-147.53;100.00;57128.34;10128741;29;20165;-78
2023/05/01 04:39:46;;;;;;;1.63;1.05;;;;;;;-147.53;100.00;57128.34;10117091;29;20076;-78
2023/05/01 04:44:48;;;;;;;1.73;0.80;;;;;;;-147.53;100.00;57128.34;10115708;29;20060;-78
2023/05/01 04:49:50;;;;;;;3.33;1.25;;;;;;;-147.53;100.00;57128.34;10131118;29;20515;-78
2023/05/01 04:54:52;;;;;;;2.60;1.48;;;;;;;-147.53;100.00;57128.34;10129578;29;20060;-78
2023/05/01 04:59:57;;;;;;;4.00;1.85;;;;;;;-147.53;100.00;57128.34;10123241;29;20096;-78
2023/05/01 05:04:59;;;;;;;3.05;1.63;;;;;;;-147.53;100.00;57128.34;10137872;29;20052;-78
2023/05/01 05:10:02;;;;;;;3.25;0.80;;;;;;;-147.53;100.00;57128.34;10117393;29;20044;-78
2023/05/01 05:15:04;;;;;;;2.78;1.42;;;;;;;-147.53;100.00;57128.34;10132793;29;20158;-78
2023/05/01 05:20:06;;;;;;;1.63;1.20;;;;;;;-147.53;100.00;57128.34;10150370;29;20051;-78
2023/05/01 05:25:09;;;;;;;2.72;1.38;;;;;;;-147.53;100.00;57128.34;10134225;29;20151;-78
2023/05/01 05:30:11;;;;;;;1.65;1.10;;;;;;;-147.53;100.00;57128.34;10149531;29;20480;-77
2023/05/01 05:35:13;;;;;;;2.05;1.25;;;;;;;-147.53;100.00;57128.34;10142438;29;20536;-78
2023/05/01 05:40:15;;;;;;;4.32;1.10;;;;;;;-147.53;100.00;57128.34;10130000;29;20414;-77
2023/05/01 05:45:28;;;;;;;2.72;1.50;;;;;;;-147.53;100.00;57128.34;10116610;29;20131;-77
2023/05/01 05:50:30;;;;;;;2.38;1.38;;;;;;;-147.53;100.00;57128.34;10132313;29;20063;-78
2023/05/01 05:55:32;;;;;;;0.90;0.77;;;;;;;-147.53;100.00;57128.34;10131438;29;20082;-78
2023/05/01 06:00:40;;;;;;;2.33;1.30;;;;;;;-147.53;100.00;57128.34;10120498;29;20117;-77
2023/05/01 06:05:42;;;;;;;4.55;1.58;;;;;;;-147.53;100.00;57128.34;10121335;29;20078;-77
2023/05/01 06:10:45;;;;;;;3.30;1.65;;;;;;;-147.53;100.00;57128.34;10143050;29;20254;-78
2023/05/01 06:15:47;;;;;;;1.45;0.98;;;;;;;-147.53;100.00;57128.34;10130555;29;20052;-78
2023/05/01 06:20:50;;;;;;;2.65;1.73;;;;;;;-147.53;100.00;57128.34;10126031;29;20080;-78
2023/05/01 06:25:51;;;;;;;3.45;1.55;;;;;;;-147.53;100.00;57128.34;10157962;29;20055;-77
2023/05/01 06:30:53;;;;;;;1.98;1.00;;;;;;;-147.53;100.00;57128.34;10170649;29;20048;-78
2023/05/01 06:35:58;;;;;;;2.58;1.17;;;;;;;-147.53;100.00;57128.34;10133707;29;20577;-78
2023/05/01 06:41:00;;;;;;;3.63;1.17;;;;;;;-147.53;100.00;57128.34;10142718;29;20080;-76
2023/05/01 06:46:01;;;;;;;1.50;1.05;;;;;;;-147.53;100.00;57128.34;10137655;29;20057;-77
2023/05/01 06:51:04;;;;;;;4.43;1.52;;;;;;;-147.53;100.00;57128.34;10121140;29;20139;-78
2023/05/01 06:56:07;;;;;;;2.72;1.23;;;;;;;-147.53;100.00;57128.34;10144982;29;20067;-78
2023/05/01 07:01:08;;;;;;;1.63;1.02;;;;;;;-147.53;100.00;57128.34;10114788;29;20052;-78
2023/05/01 07:06:10;;;;;;;5.55;2.00;;;;;;;-147.53;100.00;57128.34;10152582;29;20481;-79
2023/05/01 07:11:12;;;;;;;1.52;0.95;;;;;;;-147.53;100.00;57128.34;10130705;29;20055;-78
2023/05/01 07:16:14;;;;;;;2.08;1.20;;;;;;;-147.53;100.00;57128.34;10157412;29;20041;-78
2023/05/01 07:21:15;;;;;;;3.80;1.52;;;;;;;-147.53;100.00;57128.34;10174867;29;20398;-78
2023/05/01 07:26:17;;;;;;;1.08;0.98;;;;;;;-147.53;100.00;57128.34;10172837;29;20060;-78
2023/05/01 07:31:18;;;;;;;3.05;1.40;;;;;;;-147.53;100.00;57128.34;10138257;29;20049;-78
2023/05/01 07:36:21;;;;;;;4.63;1.63;;;;;;;-147.53;100.00;57128.34;10160133;29;20075;-78
2023/05/01 07:41:24;;;;;;;4.57;1.70;;;;;;;-147.53;100.00;57128.34;10156929;29;20070;-78
2023/05/01 07:46:25;;;;;;;6.60;1.85;;;;;;;-147.53;100.00;57128.34;10146773;29;20093;-78
2023/05/01 07:51:27;;;;;;;5.53;1.75;;;;;;;-147.53;100.00;57128.34;10186677;29;20041;-78
2023/05/01 07:56:30;;;;;;;2.83;1.52;;;;;;;-147.53;100.00;57128.34;10167090;29;20055;-78
2023/05/01 08:01:33;;;;;;;6.63;1.67;;;;;;;-147.53;100.00;57128.34;10149340;29;20152;-78
2023/05/01 08:06:35;;;;;;;5.38;1.27;;;;;;;-147.53;100.00;57128.34;10166354;29;20473;-78
2023/05/01 08:11:37;;;;;;;10.70;1.50;;;;;;;-147.53;100.00;57128.34;10149277;29;20085;-78
2023/05/01 08:16:38;;;;;;;2.97;1.20;;;;;;;-147.53;100.00;57128.34;10168117;29;20048;-78
2023/05/01 08:21:40;;;;;;;;;;;;;;;-147.53;100.00;57128.34;10148805;29;20159;-78
2023/05/01 08:26:42;;;;;;;2.85;1.30;;;;;;;-147.53;100.00;57128.34;10166074;29;19995;-78
2023/05/01 08:31:44;;;;;;;;;;;;;;;-147.53;100.00;57128.34;10192372;29;20141;-78
2023/05/01 08:36:45;;;;;;;3.25;1.40;;;;;;;-147.53;100.00;57128.34;10162689;29;19962;-78
2023/05/01 08:41:48;;;;;;;2.90;1.25;;;;;;;-147.53;100.00;57128.34;10173496;29;20497;-78
2023/05/01 08:47:20;;;;;;;2.97;1.40;;;;;;;-147.53;100.00;57128.34;10149436;29;20132;-79
2023/05/01 08:52:25;;;;;;;4.18;1.15;;;;;;;-147.53;100.00;57128.34;10162897;29;20087;-78
2023/05/01 08:57:29;;;;;;;3.47;1.23;;;;;;;-147.53;100.00;57128.34;10187336;29;20055;-78
2023/05/01 09:02:34;;;;;;;1.90;1.00;;;;;;;-147.53;100.00;57128.34;10175212;29;20121;-78
2023/05/01 09:07:37;;;;;;;4.72;1.50;;;;;;;-147.53;100.00;57128.34;10147166;29;20056;-78
2023/05/01 09:12:40;;;;;;;6.88;1.42;;;;;;;-147.53;100.00;57128.34;10148396;29;20052;-78
2023/05/01 09:17:43;;;;;;;2.33;1.25;;;;;;;-147.53;100.00;57128.34;10178382;29;20311;-78
2023/05/01 09:22:45;;;;;;;2.58;1.10;;;;;;;-147.53;100.00;57128.34;10121572;29;20048;-79
2023/05/01 09:27:48;;;;;;;3.63;1.42;;;;;;;-147.53;100.00;57128.34;10145388;29;20071;-79
2023/05/01 09:33:03;;;;;;;3.92;1.30;;;;;;;-147.53;100.00;57128.34;10158678;29;20116;-78
2023/05/01 09:38:05;;;;;;;4.63;1.65;;;;;;;-147.53;100.00;57128.34;10154948;29;20045;-78
2023/05/01 09:43:08;;;;;;;6.25;1.10;;;;;;;-147.53;100.00;57128.34;10170109;29;20552;-78
2023/05/01 09:48:12;;;;;;;;;;;;;;;-147.53;100.00;57128.34;10146910;29;20056;-78
2023/05/01 09:53:14;;;;;;;4.18;1.30;;;;;;;-147.53;100.00;57128.34;10162661;29;19934;-78
2023/05/01 09:58:27;;;;;;;8.02;1.40;;;;;;;-147.53;100.00;57128.34;10171325;29;20099;-78
2023/05/01 10:03:29;;;;;;;2.83;1.00;;;;;;;-147.53;100.00;57128.34;10156114;29;20063;-78
2023/05/01 10:08:49;;;;;;;2.47;1.17;;;;;;;-147.53;100.00;57128.34;10174174;29;20052;-79
2023/05/01 10:14:08;;;;;;;3.60;1.20;;;;;;;-147.53;100.00;57128.34;10158025;29;20068;-78
2023/05/01 10:19:10;;;;;;;3.35;1.10;;;;;;;-147.53;100.00;57128.34;10163315;29;20107;-78
2023/05/01 10:24:13;;;;;;;3.47;1.00;;;;;;;-147.53;100.00;57128.34;10165492;29;20052;-77
2023/05/01 10:29:17;;;;;;;2.72;1.27;;;;;;;-147.53;100.00;57128.34;10169133;29;20104;-77
2023/05/01 10:34:21;;;;;;;2.35;1.15;;;;;;;-147.53;100.00;57128.34;10137001;29;20048;-78
2023/05/01 10:39:31;;;;;;;2.70;1.08;;;;;;;-147.53;100.00;57128.34;10141767;29;20051;-78
2023/05/01 10:44:33;;;;;;;1.23;0.80;;;;;;;-147.53;100.00;57128.34;10157569;29;20052;-78
2023/05/01 10:50:03;;;;;;;2.42;1.02;;;;;;;-147.53;100.00;57128.34;10144790;29;20539;-78
2023/05/01 10:55:35;;;;;;;2.28;1.00;;;;;;;-147.53;100.00;57128.34;10150922;29;20072;-78
2023/05/01 11:00:37;;;;;;;2.10;1.00;;;;;;;-147.53;100.00;57128.34;10160869;29;20076;-78
2023/05/01 11:06:03;;;;;;;2.90;1.15;;;;;;;-147.53;100.00;57128.34;10174940;29;20059;-78
2023/05/01 11:11:20;;;;;;;2.05;0.70;;;;;;;-147.53;100.00;57128.34;10167127;29;20057;-78
2023/05/01 11:16:40;;;;;;;2.72;0.55;;;;;;;-147.53;100.00;57128.34;10161189;29;20079;-78
2023/05/01 11:21:43;;;;;;;1.50;0.90;;;;;;;-147.53;100.00;57128.34;10172661;29;20091;-78
2023/05/01 11:26:46;;;;;;;4.50;0.98;;;;;;;-147.53;100.00;57128.34;10166127;29;20061;-78
2023/05/01 11:31:47;;;;;;;0.95;0.80;;;;;;;-147.53;100.00;57128.34;10145649;29;20062;-77
2023/05/01 11:36:51;;;;;;;0.75;0.70;;;;;;;-147.53;100.00;57128.34;10163562;29;20521;-78
2023/05/01 11:42:06;;;;;;;4.38;1.02;;;;;;;-147.53;100.00;57128.34;10172994;29;20060;-78
2023/05/01 11:47:07;;;;;;;2.97;0.90;;;;;;;-147.53;100.00;57128.34;10174169;29;20116;-78
2023/05/01 11:52:09;;;;;;;4.32;1.42;;;;;;;-147.53;100.00;57128.34;10155730;29;20060;-78
2023/05/01 11:57:11;;;;;;;1.95;1.20;;;;;;;-147.53;100.00;57128.34;10165602;29;20080;-77
2023/05/01 12:02:19;;;;;;;9.13;1.83;;;;;;;-147.53;100.00;57128.34;10166444;29;20144;-78
2023/05/01 12:07:22;;;;;;;9.48;3.72;;;;;;;-147.53;100.00;57128.34;10179954;29;20040;-79
2023/05/01 12:12:23;;;;;;;;;;;;;;;-147.53;100.00;57128.34;10167280;29;20056;-78
2023/05/01 12:17:27;;;;;;;6.07;1.35;;;;;;;-147.53;100.00;57128.34;10156451;29;20002;-78
2023/05/01 12:22:29;;;;;;;3.50;1.00;;;;;;;-147.53;100.00;57128.34;10173969;29;20052;-78
2023/05/01 12:27:31;;;;;;;2.70;1.20;;;;;;;-147.53;100.00;57128.34;10162712;29;20532;-78
2023/05/01 12:32:33;;;;;;;2.00;1.00;;;;;;;-147.53;100.00;57128.34;10150300;29;20067;-78
2023/05/01 12:37:35;;;;;;;2.70;1.25;;;;;;;-147.53;100.00;57128.34;10143223;29;20060;-78
2023/05/01 12:42:37;;;;;;;3.33;2.10;;;;;;;-147.53;100.00;57128.34;10155493;29;20044;-78
2023/05/01 12:47:39;;;;;;;2.45;1.10;;;;;;;-147.53;100.00;57128.34;10170120;29;20142;-79
2023/05/01 12:52:41;;;;;;;2.13;1.00;;;;;;;-147.53;100.00;57128.34;10140562;29;20124;-78
2023/05/01 12:57:51;;;;;;;5.00;1.48;;;;;;;-147.53;100.00;57128.34;10139830;29;20084;-77
2023/05/01 13:02:53;;;;;;;5.85;1.80;;;;;;;-147.53;100.00;57128.34;10143148;29;20847;-78
2023/05/01 13:07:55;;;;;;;3.63;1.50;;;;;;;-147.53;100.00;57128.34;10173114;29;20068;-78
2023/05/01 13:12:57;;;;;;;3.40;1.25;;;;;;;-147.53;100.00;57128.34;10150703;29;20121;-78
2023/05/01 13:18:05;;;;;;;3.92;1.70;;;;;;;-147.53;100.00;57128.34;10142113;29;20070;-78
2023/05/01 13:23:11;;;;;;;5.38;1.58;;;;;;;-147.53;100.00;57128.34;10149044;29;20045;-79
2023/05/01 13:28:18;;;;;;;1.88;1.20;;;;;;;-147.53;100.00;57128.34;10144492;29;20618;-78
2023/05/01 13:33:20;;;;;;;3.47;1.20;;;;;;;-147.53;100.00;57128.34;10181597;29;20060;-78
2023/05/01 13:38:23;;;;;;;2.83;1.42;;;;;;;-147.53;100.00;57128.34;10143562;29;20056;-78
2023/05/01 13:43:25;;;;;;;1.77;1.02;;;;;;;-147.53;100.00;57128.34;10176549;29;20080;-78
2023/05/01 13:48:29;;;;;;;2.85;1.38;;;;;;;-147.53;100.00;57128.34;10145619;29;20072;-78
2023/05/01 13:53:31;;;;;;;3.40;1.70;;;;;;;-147.53;100.00;57128.34;10157924;29;20551;-78
2023/05/01 13:58:33;;;;;;;3.08;1.38;;;;;;;-147.53;100.00;57128.34;10150108;29;20051;-78
2023/05/01 14:03:39;;;;;;;5.80;1.50;;;;;;;-147.53;100.00;57128.34;10149175;29;20140;-78
2023/05/01 14:08:43;;;;;;;5.70;1.77;;;;;;;-147.53;100.00;57128.34;10178635;29;20274;-78
2023/05/01 14:13:48;;;;;;;3.88;2.00;;;;;;;-147.53;100.00;57128.34;10161992;29;20057;-78
2023/05/01 14:18:53;;;;;;;4.68;1.88;;;;;;;-147.53;100.00;57128.34;10168414;29;20076;-78
2023/05/01 14:23:56;;;;;;;5.03;2.03;;;;;;;-147.53;100.00;57128.34;10151099;29;20547;-78
2023/05/01 14:28:57;;;;;;;3.40;1.83;;;;;;;-147.53;100.00;57128.34;10154030;29;20521;-78
2023/05/01 14:34:05;;;;;;;2.88;1.38;;;;;;;-147.53;100.00;57128.34;10096255;29;20067;-77
2023/05/01 14:39:14;;;;;;;3.45;1.50;;;;;;;-147.53;100.00;57128.34;10128817;29;20054;-78
2023/05/01 14:44:19;;;;;;;3.47;1.80;;;;;;;-147.53;100.00;57128.34;10138706;29;20352;-79
2023/05/01 14:49:23;;;;;;;3.53;1.88;;;;;;;-147.53;100.00;57128.34;10147026;29;20040;-78
2023/05/01 14:54:24;;;;;;;4.53;1.90;;;;;;;-147.53;100.00;57128.34;10155331;29;20068;-78
2023/05/01 14:59:26;;;;;;;4.10;1.73;;;;;;;-147.53;100.00;57128.34;10136325;29;20048;-77
2023/05/01 15:04:28;;;;;;;3.25;1.35;;;;;;;-147.53;100.00;57128.34;10125271;29;20064;-77
2023/05/01 15:09:30;;;;;;;6.18;1.52;;;;;;;-147.53;100.00;57128.34;10131678;29;20052;-77
2023/05/01 15:14:32;;;;;;;3.13;0.93;;;;;;;-147.53;100.00;57128.34;10115917;29;20058;-77
2023/05/01 15:19:33;;;;;;;2.15;1.20;;;;;;;-147.53;100.00;57128.34;10128772;29;20051;-77
2023/05/01 15:24:36;;;;;;;3.15;1.17;;;;;;;-147.53;100.00;57128.34;10113839;29;20389;-77
2023/05/01 15:29:37;;;;;;;4.93;1.33;;;;;;;-147.53;100.00;57128.34;10133314;29;20072;-77
2023/05/01 15:34:40;;;;;;;3.60;2.00;;;;;;;-147.53;100.00;57128.34;10120733;29;20050;-78
2023/05/01 15:39:41;;;;;;;5.70;2.05;;;;;;;-147.53;100.00;57128.34;10115054;29;20068;-77
2023/05/01 15:44:43;;;;;;;3.88;1.40;;;;;;;-147.53;100.00;57128.34;10124426;29;20557;-76
2023/05/01 15:49:44;;;;;;;5.60;1.60;;;;;;;-147.53;100.00;57128.34;10133564;29;20044;-76
2023/05/01 15:54:46;;;;;;;3.95;1.63;;;;;;;-147.53;100.00;57128.34;10126462;29;20062;-76
2023/05/01 15:59:52;;;;;;;2.88;1.17;;;;;;;-147.53;100.00;57128.34;10115219;29;20139;-75
2023/05/01 16:04:55;;;;;;;3.97;1.60;;;;;;;-147.53;100.00;57128.34;10121658;29;20678;-78
2023/05/01 16:09:57;;;;;;;2.35;1.10;;;;;;;-147.53;100.00;57128.34;10151216;29;20056;-75
2023/05/01 16:15:02;;;;;;;3.63;1.45;;;;;;;-147.53;100.00;57128.34;10150568;29;20117;-79
2023/05/01 16:20:12;;;;;;;3.58;1.58;;;;;;;-147.53;100.00;57128.34;10135984;29;20052;-77
2023/05/01 16:25:13;;;;;;;5.22;1.73;;;;;;;-147.53;100.00;57128.34;10127460;29;20079;-78
2023/05/01 16:30:15;;;;;;;3.42;1.10;;;;;;;-147.53;100.00;57128.34;10114479;29;20060;-79
2023/05/01 16:35:21;;;;;;;4.80;1.38;;;;;;;-147.53;100.00;57128.34;10103131;29;20064;-77
2023/05/01 16:40:23;;;;;;;4.22;1.23;;;;;;;-147.53;100.00;57128.34;10122675;29;20051;-77
2023/05/01 16:45:26;;;;;;;2.30;1.15;;;;;;;-147.53;100.00;57128.34;10143009;29;20068;-76
2023/05/01 16:50:27;;;;;;;2.65;1.20;;;;;;;-147.53;100.00;57128.34;10117433;29;20433;-75
2023/05/01 16:55:30;;;;;;;5.93;1.13;;;;;;;-147.53;100.00;57128.34;10133836;29;20083;-76
2023/05/01 17:00:32;;;;;;;4.03;1.35;;;;;;;-147.53;100.00;57128.34;10124766;29;20413;-76
2023/05/01 17:05:33;;;;;;;2.10;0.95;;;;;;;-147.53;100.00;57128.34;10147856;29;20080;-75
2023/05/01 17:10:37;;;;;;;2.60;1.10;;;;;;;-147.53;100.00;57128.34;10165233;29;20052;-78
2023/05/01 17:15:40;;;;;;;7.05;1.20;;;;;;;-147.53;100.00;57128.34;10105624;29;20144;-77
2023/05/01 17:20:43;;;;;;;2.65;1.05;;;;;;;-147.53;100.00;57128.34;10100457;29;20064;-75
2023/05/01 17:25:46;;;;;;;2.58;0.95;;;;;;;-147.53;100.00;57128.34;10142530;29;20517;-75
2023/05/01 17:30:47;;;;;;;1.13;0.82;;;;;;;-147.53;100.00;57128.34;10141386;29;20432;-76
2023/05/01 17:35:49;;;;;;;4.47;0.90;;;;;;;-147.53;100.00;57128.34;10123273;29;20088;-76
2023/05/01 17:40:51;;;;;;;1.75;0.80;;;;;;;-147.53;100.00;57128.34;10116601;29;20049;-76
2023/05/01 17:45:52;;;;;;;1.35;0.77;;;;;;;-147.53;100.00;57128.34;10134876;29;20058;-76
2023/05/01 17:50:54;;;;;;;1.40;0.77;;;;;;;-147.53;100.00;57128.34;10129470;29;20112;-75
2023/05/01 17:55:57;;;;;;;1.48;0.75;;;;;;;-147.53;100.00;57128.34;10116829;29;20232;-76
2023/05/01 18:00:58;;;;;;;1.15;0.70;;;;;;;-147.53;100.00;57128.34;10098596;29;20048;-74
2023/05/01 18:06:03;;;;;;;2.17;0.93;;;;;;;-147.53;100.00;57128.34;10117728;29;20668;-77
2023/05/01 18:11:05;;;;;;;2.25;0.80;;;;;;;-147.53;100.00;57128.34;10119038;29;20063;-77
2023/05/01 18:16:07;;;;;;;1.33;0.80;;;;;;;-147.53;100.00;57128.34;10116790;29;20096;-77
2023/05/01 18:21:09;;;;;;;4.40;0.75;;;;;;;-147.53;100.00;57128.34;10085631;29;20596;-77
2023/05/01 18:26:11;;;;;;;1.33;0.85;;;;;;;-147.53;100.00;57128.34;10115415;29;20249;-77
2023/05/01 18:31:13;;;;;;;1.85;0.80;;;;;;;-147.53;100.00;57128.34;10120036;29;20060;-75
2023/05/01 18:36:15;;;;;;;1.25;0.70;;;;;;;-147.53;100.00;57128.34;10099277;29;20109;-77
2023/05/01 18:41:18;;;;;;;2.15;0.70;;;;;;;-147.53;100.00;57128.34;10144616;29;20057;-76
2023/05/01 18:46:20;;;;;;;1.38;0.68;;;;;;;-147.53;100.00;57128.34;10106128;29;20514;-77
2023/05/01 18:51:21;;;;;;;2.08;0.90;;;;;;;-147.53;100.00;57128.34;10109392;29;20056;-77
2023/05/01 18:56:24;;;;;;;1.77;0.93;;;;;;;-147.53;100.00;57128.34;10101196;29;20060;-77
2023/05/01 19:01:26;;;;;;;2.38;0.93;;;;;;;-147.53;100.00;57128.34;10125174;29;20482;-77
2023/05/01 19:06:28;;;;;;;2.65;0.90;;;;;;;-147.53;100.00;57128.34;10116606;29;20127;-76
2023/05/01 19:11:30;;;;;;;1.77;0.90;;;;;;;-147.53;100.00;57128.34;10101814;29;20457;-76
2023/05/01 19:16:32;;;;;;;2.72;0.98;;;;;;;-147.53;100.00;57128.34;10107210;29;20100;-76
2023/05/01 19:21:34;;;;;;;1.85;0.90;;;;;;;-147.53;100.00;57128.34;10135155;29;20076;-76
2023/05/01 19:26:37;;;;;;;1.27;0.77;;;;;;;-147.53;100.00;57128.34;10156738;29;20562;-76
2023/05/01 19:31:38;;;;;;;0.85;0.73;;;;;;;-147.53;100.00;57128.34;10128112;29;20164;-76
2023/05/01 19:36:40;;;;;;;2.50;1.00;;;;;;;-147.53;100.00;57128.34;10122707;29;20068;-77
2023/05/01 19:41:41;;;;;;;1.80;1.33;;;;;;;-147.53;100.00;57128.34;10133986;29;20063;-76
2023/05/01 19:46:43;;;;;;;1.90;1.00;;;;;;;-147.53;100.00;57128.34;10122893;29;20060;-76
2023/05/01 19:51:45;;;;;;;1.75;1.00;;;;;;;-147.53;100.00;57128.34;10132827;29;20044;-76
2023/05/01 19:56:50;;;;;;;3.83;1.58;;;;;;;-147.53;100.00;57128.34;10120447;29;20100;-76
2023/05/01 20:01:52;;;;;;;5.28;1.30;;;;;;;-147.53;100.00;57128.34;10132576;29;20080;-77
2023/05/01 20:06:54;;;;;;;3.17;1.40;;;;;;;-147.53;100.00;57128.34;10145985;29;20144;-76
2023/05/01 20:11:56;;;;;;;7.28;1.60;;;;;;;-147.53;100.00;57128.34;10133117;29;20436;-76
2023/05/01 20:16:58;;;;;;;5.18;1.27;;;;;;;-147.53;100.00;57128.34;10140362;29;20053;-76
2023/05/01 20:21:59;;;;;;;3.38;1.75;;;;;;;-147.53;100.00;57128.34;10155053;29;20048;-77
2023/05/01 20:27:04;;;;;;;2.05;1.17;;;;;;;-147.53;100.00;57128.34;10132240;29;20053;-76
2023/05/01 20:32:08;;;;;;;2.88;1.63;;;;;;;-147.53;100.00;57128.34;10113671;29;20057;-77
2023/05/01 20:37:10;;;;;;;3.38;1.83;;;;;;;-147.53;100.00;57128.34;10145590;29;20056;-77
2023/05/01 20:42:12;;;;;;;7.35;2.80;;;;;;;-147.53;100.00;57128.34;10157147;29;20044;-76
2023/05/01 20:47:13;;;;;;;4.70;2.03;;;;;;;-147.53;100.00;57128.34;10135563;29;20063;-76
2023/05/01 20:52:15;;;;;;;5.72;2.60;;;;;;;-147.53;100.00;57128.34;10139779;29;20540;-76
2023/05/01 20:57:16;;;;;;;5.35;2.45;;;;;;;-147.53;100.00;57128.34;10162185;29;20063;-77
2023/05/01 21:02:18;;;;;;;7.63;2.55;;;;;;;-147.53;100.00;57128.34;10142726;29;20043;-77
2023/05/01 21:07:21;;;;;;;10.50;3.05;;;;;;;-147.53;100.00;57128.34;10125169;29;20517;-76
2023/05/01 21:12:23;;;;;;;7.30;2.45;;;;;;;-147.53;100.00;57128.34;10138469;29;20044;-76
2023/05/01 21:17:25;;;;;;;7.82;3.15;;;;;;;-147.53;100.00;57128.34;10147957;29;20067;-76
2023/05/01 21:22:28;;;;;;;9.85;2.78;;;;;;;-147.53;100.00;57128.34;10155353;29;20150;-76
2023/05/01 21:27:29;;;;;;;7.60;3.15;;;;;;;-147.53;100.00;57128.34;10154120;29;20071;-76
2023/05/01 21:32:38;;;;;;;8.45;3.28;;;;;;;-147.53;100.00;57128.34;10155106;29;20036;-77
2023/05/01 21:37:42;;;;;;;;;;;;;;;-147.53;100.00;57128.34;10138511;29;20056;-77
2023/05/01 21:42:44;;;;;;;7.55;3.15;;;;;;;-147.53;100.00;57128.34;10144937;29;19975;-76
2023/05/01 21:47:47;;;;;;;9.50;2.95;;;;;;;-147.53;100.00;57128.34;10145441;29;20071;-77
2023/05/01 21:52:49;;;;;;;6.32;3.00;;;;;;;-147.53;100.00;57128.34;10148220;29;20056;-76
2023/05/01 21:57:52;;;;;;;9.80;2.75;;;;;;;-147.53;100.00;57128.34;10137634;29;20055;-77
2023/05/01 22:02:55;;;;;;;6.43;3.08;;;;;;;-147.53;100.00;57128.34;10138680;29;20048;-77
2023/05/01 22:07:57;;;;;;;8.18;3.38;;;;;;;-147.53;100.00;57128.34;10132147;29;20506;-77
2023/05/01 22:12:59;;;;;;;12.15;3.63;;;;;;;-147.53;100.00;57128.34;10152831;29;20052;-77
2023/05/01 22:18:00;;;;;;;9.40;4.00;;;;;;;-147.53;100.00;57128.34;10120555;29;20108;-77
2023/05/01 22:23:03;;;;;;;10.55;4.90;;;;;;;-147.53;100.00;57128.34;10145071;29;20524;-76
2023/05/01 22:28:05;;;;;;;14.15;4.78;;;;;;;-147.53;100.00;57128.34;10127945;29;20520;-76
2023/05/01 22:33:06;;;;;;;9.32;4.50;;;;;;;-147.53;100.00;57128.34;10160653;29;20077;-77
2023/05/01 22:38:08;;;;;;;14.05;4.78;;;;;;;-147.53;100.00;57128.34;10110801;29;20083;-75
2023/05/01 22:43:10;;;;;;;16.35;4.95;;;;;;;-147.53;100.00;57128.34;10141227;29;20052;-77
2023/05/01 22:48:11;;;;;;;11.20;4.57;;;;;;;-147.53;100.00;57128.34;10147991;29;20048;-77